Time;durP1;ratioP1;P1;durP2;ratioP2;P2;SDS_P1;SDS_P2;PMS_P1;PMS_P2;Temp;Humidity;BMP_temperature;BMP_pressure;BME280_temperature;BME280_humidity;BME280_pressure;Samples;Min_cycle;Max_cycle;Signal;HPM_P1;HPM_P2
2022/03/06 00:01:37;;;;;;;12.67;8.47;;;0.30;69.70;;;;;;5029752;28;20550;-52
2022/03/06 00:04:03;;;;;;;14.07;7.93;;;0.20;66.70;;;;;;5031417;28;20482;-51
2022/03/06 00:06:31;;;;;;;12.60;7.90;;;0.20;66.00;;;;;;5031288;28;20541;-52
2022/03/06 00:08:58;;;;;;;9.97;6.97;;;0.30;66.80;;;;;;5029264;28;20589;-52
2022/03/06 00:11:24;;;;;;;9.20;7.40;;;0.40;68.50;;;;;;5025019;28;20899;-52
2022/03/06 00:13:51;;;;;;;9.23;7.80;;;0.40;69.80;;;;;;5029617;28;20447;-52
2022/03/06 00:16:18;;;;;;;10.50;8.90;;;0.40;68.10;;;;;;5032176;28;20449;-51
2022/03/06 00:18:44;;;;;;;9.03;7.93;;;0.40;70.10;;;;;;5031399;28;20497;-52
2022/03/06 00:21:12;;;;;;;9.73;8.30;;;0.40;72.40;;;;;;5030767;28;20479;-52
2022/03/06 00:23:40;;;;;;;9.77;8.17;;;0.40;67.70;;;;;;5031570;28;20524;-52
2022/03/06 00:26:08;;;;;;;12.60;7.07;;;0.30;69.40;;;;;;5031539;28;20479;-52
2022/03/06 00:28:35;;;;;;;8.83;6.43;;;0.30;71.00;;;;;;5020134;28;20969;-53
2022/03/06 00:31:02;;;;;;;8.70;5.90;;;0.30;75.20;;;;;;5029722;28;21008;-52
2022/03/06 00:33:29;;;;;;;7.90;6.23;;;0.30;76.20;;;;;;5029530;28;20478;-53
2022/03/06 00:35:55;;;;;;;7.17;5.67;;;0.30;72.60;;;;;;5026533;28;20455;-52
2022/03/06 00:38:22;;;;;;;16.60;10.37;;;0.40;73.00;;;;;;5030808;28;20514;-51
2022/03/06 00:40:51;;;;;;;18.13;13.33;;;0.40;72.00;;;;;;5023679;28;20455;-52
2022/03/06 00:43:18;;;;;;;25.03;16.20;;;0.40;68.40;;;;;;5015361;28;20983;-52
2022/03/06 00:45:44;;;;;;;23.40;16.33;;;0.40;74.90;;;;;;5031802;28;20454;-52
2022/03/06 00:48:11;;;;;;;22.03;13.47;;;0.20;72.10;;;;;;5029429;28;20971;-52
2022/03/06 00:50:39;;;;;;;22.43;13.17;;;0.30;73.40;;;;;;5030297;28;20486;-52
2022/03/06 00:53:06;;;;;;;22.13;14.20;;;0.30;72.70;;;;;;5014534;28;20564;-52
2022/03/06 00:55:33;;;;;;;23.10;14.87;;;0.40;69.50;;;;;;5029450;28;20466;-52
2022/03/06 00:58:05;;;;;;;28.37;16.93;;;0.40;71.40;;;;;;5024931;28;21353;-52
2022/03/06 01:00:34;;;;;;;23.83;12.73;;;0.40;72.20;;;;;;5029944;28;20455;-52
2022/03/06 01:03:00;;;;;;;21.07;13.33;;;0.40;70.70;;;;;;5018677;28;20465;-52
2022/03/06 01:05:27;;;;;;;21.43;13.47;;;0.40;71.90;;;;;;5033998;28;20978;-53
2022/03/06 01:07:54;;;;;;;26.40;16.50;;;0.40;72.50;;;;;;5033027;28;20490;-52
2022/03/06 01:10:20;;;;;;;13.17;10.60;;;0.40;76.60;;;;;;5034053;28;20533;-52
2022/03/06 01:12:47;;;;;;;9.63;7.20;;;0.40;78.10;;;;;;5027298;28;20463;-52
2022/03/06 01:15:15;;;;;;;9.67;7.20;;;0.50;80.40;;;;;;5029292;28;20495;-52
2022/03/06 01:17:41;;;;;;;8.70;7.63;;;0.50;78.90;;;;;;5034425;28;20574;-52
2022/03/06 01:20:09;;;;;;;6.43;5.70;;;0.50;78.20;;;;;;5035191;28;21287;-52
2022/03/06 01:22:35;;;;;;;11.60;6.50;;;0.40;81.90;;;;;;5034419;28;20490;-52
2022/03/06 01:25:02;;;;;;;8.93;6.67;;;0.40;86.90;;;;;;5032302;28;20481;-52
2022/03/06 01:27:29;;;;;;;7.37;6.13;;;0.40;82.80;;;;;;5028762;28;20504;-52
2022/03/06 01:29:55;;;;;;;9.03;7.03;;;0.40;80.20;;;;;;5032847;28;20487;-51
2022/03/06 01:32:23;;;;;;;10.80;6.70;;;0.40;78.50;;;;;;5027596;28;20490;-52
2022/03/06 01:34:50;;;;;;;8.43;6.70;;;0.40;81.00;;;;;;5034942;28;20458;-52
2022/03/06 01:37:17;;;;;;;7.90;6.63;;;0.40;77.40;;;;;;5026444;28;20537;-52
2022/03/06 01:39:43;;;;;;;9.73;6.80;;;0.40;75.30;;;;;;5033050;28;20494;-52
2022/03/06 01:42:10;;;;;;;8.07;6.97;;;0.40;76.80;;;;;;5033124;28;20481;-52
2022/03/06 01:44:37;;;;;;;8.30;6.10;;;0.40;75.00;;;;;;5030858;28;20489;-52
2022/03/06 01:47:04;;;;;;;10.10;6.53;;;0.40;84.50;;;;;;5030307;28;21019;-52
2022/03/06 01:49:32;;;;;;;13.20;6.83;;;0.50;79.00;;;;;;5034429;28;20509;-52
2022/03/06 01:51:58;;;;;;;7.17;6.20;;;0.50;79.20;;;;;;5033851;28;20482;-52
2022/03/06 01:54:25;;;;;;;7.10;6.40;;;0.50;78.60;;;;;;5034632;28;20479;-51
2022/03/06 01:56:51;;;;;;;9.50;7.30;;;0.50;78.40;;;;;;5032012;28;20482;-51
2022/03/06 01:59:19;;;;;;;9.23;8.20;;;0.40;82.30;;;;;;5028050;28;20503;-52
2022/03/06 02:01:45;;;;;;;10.20;8.00;;;0.40;86.70;;;;;;5025162;28;20451;-52
2022/03/06 02:04:12;;;;;;;8.63;7.60;;;0.40;78.30;;;;;;5027936;28;20545;-52
2022/03/06 02:06:40;;;;;;;10.83;7.47;;;0.50;84.00;;;;;;5032597;28;20498;-52
2022/03/06 02:09:07;;;;;;;8.97;7.33;;;0.40;82.60;;;;;;5028473;28;20518;-51
2022/03/06 02:11:33;;;;;;;10.27;6.77;;;0.40;76.80;;;;;;5032789;28;20497;-52
2022/03/06 02:14:02;;;;;;;7.20;6.33;;;0.40;81.70;;;;;;5033013;28;20466;-52
2022/03/06 02:16:31;;;;;;;9.27;6.90;;;0.40;78.10;;;;;;5031966;28;20459;-52
2022/03/06 02:18:57;;;;;;;7.40;6.27;;;0.50;85.60;;;;;;5033901;28;20525;-51
2022/03/06 02:21:25;;;;;;;6.50;5.90;;;0.40;81.00;;;;;;5030159;28;20494;-52
2022/03/06 02:23:54;;;;;;;6.93;6.23;;;0.40;79.80;;;;;;5033917;28;20481;-51
2022/03/06 02:26:20;;;;;;;6.23;5.60;;;0.40;81.10;;;;;;5029332;28;20467;-52
2022/03/06 02:28:47;;;;;;;8.40;6.40;;;0.50;82.30;;;;;;5033096;28;20528;-52
2022/03/06 02:31:14;;;;;;;8.77;5.73;;;0.50;83.60;;;;;;5022514;28;20972;-52
2022/03/06 02:33:40;;;;;;;8.30;5.80;;;0.50;78.30;;;;;;5028554;28;20492;-52
2022/03/06 02:36:07;;;;;;;9.13;5.77;;;0.50;79.70;;;;;;5032375;28;20944;-52
2022/03/06 02:38:35;;;;;;;8.30;5.60;;;0.50;77.80;;;;;;5032766;28;20518;-52
2022/03/06 02:41:01;;;;;;;6.13;5.60;;;0.50;83.30;;;;;;5029984;28;20467;-52
2022/03/06 02:43:28;;;;;;;9.17;5.70;;;0.50;77.20;;;;;;5033214;28;20486;-52
2022/03/06 02:45:54;;;;;;;7.47;5.87;;;0.50;77.00;;;;;;5032918;28;21312;-52
2022/03/06 02:48:21;;;;;;;9.37;5.73;;;0.50;80.70;;;;;;5032178;28;21079;-52
2022/03/06 02:50:48;;;;;;;12.00;5.97;;;0.50;79.50;;;;;;5023627;28;20502;-52
2022/03/06 02:53:14;;;;;;;8.10;5.40;;;0.50;80.10;;;;;;5029764;28;20463;-52
2022/03/06 02:55:43;;;;;;;6.93;5.33;;;0.60;84.50;;;;;;5025293;28;20558;-52
2022/03/06 02:58:10;;;;;;;4.40;4.00;;;0.60;85.60;;;;;;5030294;28;20483;-52
2022/03/06 03:00:37;;;;;;;4.40;4.00;;;0.60;84.60;;;;;;5026293;28;20463;-52
2022/03/06 03:03:03;;;;;;;5.93;4.73;;;0.60;89.50;;;;;;5017500;28;20451;-52
2022/03/06 03:05:30;;;;;;;5.70;5.10;;;0.60;92.30;;;;;;5030296;28;20982;-52
2022/03/06 03:07:57;;;;;;;7.20;4.00;;;0.60;86.50;;;;;;5032901;28;20442;-52
2022/03/06 03:10:25;;;;;;;5.07;4.67;;;0.60;85.70;;;;;;5032224;28;20485;-53
2022/03/06 03:12:54;;;;;;;7.97;5.00;;;0.50;91.10;;;;;;5030523;28;20447;-52
2022/03/06 03:15:21;;;;;;;3.90;3.50;;;0.50;90.20;;;;;;5032849;28;20478;-51
2022/03/06 03:17:48;;;;;;;3.47;3.17;;;0.60;98.20;;;;;;5023834;28;20454;-51
2022/03/06 03:20:15;;;;;;;4.67;4.20;;;0.60;96.70;;;;;;5030814;28;20499;-51
2022/03/06 03:22:42;;;;;;;4.63;3.57;;;0.70;99.90;;;;;;5028360;28;20474;-51
2022/03/06 03:25:09;;;;;;;4.80;4.20;;;0.70;98.20;;;;;;5037876;28;20482;-51
2022/03/06 03:27:36;;;;;;;4.73;3.80;;;0.70;96.10;;;;;;5032449;28;20486;-52
2022/03/06 03:30:05;;;;;;;4.73;4.33;;;0.70;95.90;;;;;;5029557;28;20490;-52
2022/03/06 03:32:31;;;;;;;4.87;4.20;;;0.70;97.20;;;;;;5028700;28;20493;-52
2022/03/06 03:34:58;;;;;;;7.67;4.00;;;0.70;98.50;;;;;;5025530;28;20487;-52
2022/03/06 03:37:25;;;;;;;4.83;4.27;;;0.80;99.90;;;;;;5033008;28;20494;-52
2022/03/06 03:39:51;;;;;;;4.20;3.90;;;0.70;99.90;;;;;;5021167;28;20507;-52
2022/03/06 03:42:18;;;;;;;4.97;4.50;;;0.80;99.90;;;;;;5021582;28;20996;-51
2022/03/06 03:44:44;;;;;;;5.33;4.43;;;0.80;99.90;;;;;;5028883;28;20451;-51
2022/03/06 03:47:12;;;;;;;6.60;5.30;;;0.70;99.90;;;;;;5030292;28;20481;-51
2022/03/06 03:49:39;;;;;;;5.67;5.13;;;0.70;99.90;;;;;;5018376;28;20502;-52
2022/03/06 03:52:06;;;;;;;4.83;4.37;;;0.70;99.90;;;;;;5027735;28;20483;-52
2022/03/06 03:54:33;;;;;;;5.90;4.83;;;0.80;99.90;;;;;;5032166;28;20978;-52
2022/03/06 03:56:59;;;;;;;5.70;5.20;;;0.70;99.90;;;;;;5028093;28;20461;-51
2022/03/06 03:59:26;;;;;;;6.50;4.97;;;0.70;99.90;;;;;;5023843;28;20541;-52
2022/03/06 04:01:53;;;;;;;5.90;5.30;;;0.80;99.90;;;;;;5030034;28;20897;-52
2022/03/06 04:04:21;;;;;;;6.93;4.80;;;0.70;99.90;;;;;;5031691;28;20865;-52
2022/03/06 04:06:48;;;;;;;5.50;5.00;;;0.70;99.90;;;;;;5018469;28;20820;-52
2022/03/06 04:09:14;;;;;;;7.90;5.00;;;0.70;99.90;;;;;;5024685;28;20482;-52
2022/03/06 04:11:41;;;;;;;6.43;5.40;;;0.80;99.90;;;;;;5031575;28;20499;-52
2022/03/06 04:14:07;;;;;;;5.27;4.77;;;0.80;99.90;;;;;;5032300;28;20488;-52
2022/03/06 04:16:34;;;;;;;5.97;5.37;;;0.80;99.90;;;;;;5019810;28;20503;-52
2022/03/06 04:19:01;;;;;;;5.23;4.77;;;0.80;99.90;;;;;;5023359;28;20483;-52
2022/03/06 04:21:28;;;;;;;5.00;4.50;;;0.80;99.90;;;;;;5024691;28;20529;-52
2022/03/06 04:23:55;;;;;;;12.60;5.43;;;0.80;99.90;;;;;;5029552;28;20969;-53
2022/03/06 04:26:21;;;;;;;6.53;5.80;;;0.80;99.90;;;;;;5030052;28;20559;-52
2022/03/06 04:28:48;;;;;;;5.60;4.90;;;0.80;99.90;;;;;;5024176;28;20486;-52
2022/03/06 04:31:15;;;;;;;6.40;4.80;;;0.80;99.90;;;;;;5025637;28;20451;-51
2022/03/06 04:33:42;;;;;;;5.50;4.83;;;0.80;99.90;;;;;;5032510;28;20451;-51
2022/03/06 04:36:08;;;;;;;5.60;4.70;;;0.80;99.90;;;;;;5018982;28;20448;-51
2022/03/06 04:38:36;;;;;;;10.70;5.20;;;0.80;99.90;;;;;;5023555;28;20522;-51
2022/03/06 04:41:04;;;;;;;4.90;4.40;;;0.80;99.90;;;;;;5026374;28;20470;-51
2022/03/06 04:43:31;;;;;;;4.80;4.40;;;0.80;99.90;;;;;;5030946;28;20454;-52
2022/03/06 04:45:57;;;;;;;5.37;4.87;;;0.80;99.90;;;;;;5031490;28;20478;-51
2022/03/06 04:48:24;;;;;;;6.77;5.40;;;0.80;99.90;;;;;;5031469;28;20494;-52
2022/03/06 04:50:50;;;;;;;6.23;5.63;;;0.80;99.90;;;;;;5021881;28;20482;-51
2022/03/06 04:53:17;;;;;;;5.13;4.63;;;0.80;99.90;;;;;;5012191;28;20475;-52
2022/03/06 04:55:45;;;;;;;5.17;4.77;;;0.80;99.90;;;;;;5024693;28;20490;-52
2022/03/06 04:58:11;;;;;;;8.27;5.40;;;0.70;99.90;;;;;;5023426;28;20574;-51
2022/03/06 05:00:38;;;;;;;6.87;5.10;;;0.70;99.90;;;;;;5031300;28;20455;-52
2022/03/06 05:03:04;;;;;;;5.30;4.80;;;0.80;99.90;;;;;;5016911;28;20486;-52
2022/03/06 05:05:31;;;;;;;5.43;4.93;;;0.70;99.90;;;;;;5029975;28;20486;-51
2022/03/06 05:07:57;;;;;;;6.03;4.90;;;0.70;99.90;;;;;;5031162;28;20497;-52
2022/03/06 05:10:24;;;;;;;4.93;4.60;;;0.60;99.90;;;;;;5023046;28;20510;-52
2022/03/06 05:12:52;;;;;;;5.50;5.00;;;0.60;99.90;;;;;;5013038;28;20459;-51
2022/03/06 05:15:19;;;;;;;8.07;5.37;;;0.60;99.90;;;;;;5021272;28;20444;-51
2022/03/06 05:17:45;;;;;;;5.53;5.03;;;0.60;99.90;;;;;;5015661;28;21138;-51
2022/03/06 05:20:13;;;;;;;5.97;4.70;;;0.60;99.90;;;;;;5031596;28;20905;-52
2022/03/06 05:22:40;;;;;;;7.77;4.93;;;0.60;99.90;;;;;;5017356;28;20526;-52
2022/03/06 05:25:08;;;;;;;5.10;4.70;;;0.60;99.90;;;;;;5024913;28;20510;-51
2022/03/06 05:27:35;;;;;;;5.00;4.57;;;0.60;99.90;;;;;;5027400;28;20493;-51
2022/03/06 05:30:04;;;;;;;5.03;4.60;;;0.60;99.90;;;;;;5023040;28;20506;-51
2022/03/06 05:32:32;;;;;;;6.63;5.53;;;0.50;99.90;;;;;;5031473;28;20790;-52
2022/03/06 05:34:59;;;;;;;5.70;5.10;;;0.60;99.90;;;;;;5031740;28;20474;-52
2022/03/06 05:37:25;;;;;;;6.30;5.60;;;0.60;99.90;;;;;;5029308;28;20470;-53
2022/03/06 05:39:52;;;;;;;6.23;5.67;;;0.60;99.90;;;;;;5023700;28;20514;-51
2022/03/06 05:42:19;;;;;;;5.33;4.83;;;0.60;99.90;;;;;;5012216;28;20490;-51
2022/03/06 05:44:46;;;;;;;9.70;5.50;;;0.50;99.90;;;;;;5028376;28;20492;-51
2022/03/06 05:47:14;;;;;;;5.93;5.40;;;0.50;99.90;;;;;;5024332;28;20486;-52
2022/03/06 05:49:40;;;;;;;12.40;5.43;;;0.60;99.90;;;;;;5019413;28;20464;-51
2022/03/06 05:52:07;;;;;;;6.90;4.90;;;0.50;99.90;;;;;;5014155;28;20479;-52
2022/03/06 05:54:34;;;;;;;7.20;5.63;;;0.50;99.90;;;;;;5031153;28;20486;-52
2022/03/06 05:57:00;;;;;;;6.30;5.40;;;0.50;99.90;;;;;;5030043;28;20474;-51
2022/03/06 05:59:27;;;;;;;5.67;5.10;;;0.60;99.90;;;;;;5021826;28;20488;-51
2022/03/06 06:01:54;;;;;;;6.40;5.80;;;0.60;99.90;;;;;;5032315;28;20451;-51
2022/03/06 06:04:22;;;;;;;5.30;4.60;;;0.60;99.90;;;;;;5025774;28;20601;-51
2022/03/06 06:06:48;;;;;;;5.20;4.70;;;0.60;99.90;;;;;;5032593;28;20963;-52
2022/03/06 06:09:15;;;;;;;5.70;5.20;;;0.50;99.90;;;;;;5024847;28;20522;-52
2022/03/06 06:11:41;;;;;;;6.60;5.80;;;0.50;99.90;;;;;;5031738;28;20992;-52
2022/03/06 06:14:08;;;;;;;7.67;5.67;;;0.50;99.90;;;;;;5033940;28;20521;-51
2022/03/06 06:16:35;;;;;;;5.80;5.30;;;0.60;99.90;;;;;;5029826;28;20462;-51
2022/03/06 06:19:01;;;;;;;6.10;4.87;;;0.60;99.90;;;;;;5029977;28;20518;-52
2022/03/06 06:21:29;;;;;;;7.30;4.90;;;0.60;99.90;;;;;;5028129;28;20502;-51
2022/03/06 06:23:56;;;;;;;5.67;4.50;;;0.70;99.90;;;;;;5024416;28;20480;-52
2022/03/06 06:26:24;;;;;;;5.80;4.80;;;0.60;99.90;;;;;;5025735;28;20490;-52
2022/03/06 06:28:55;;;;;;;6.17;5.57;;;0.60;99.90;;;;;;5018127;28;20495;-51
2022/03/06 06:31:23;;;;;;;8.02;5.22;;;0.60;99.90;;;;;;5016578;28;20454;-51
2022/03/06 06:33:49;;;;;;;8.10;4.73;;;0.60;99.90;;;;;;5022094;28;20227;-52
2022/03/06 06:36:16;;;;;;;8.37;5.53;;;0.70;99.90;;;;;;5033770;28;21113;-52
2022/03/06 06:38:44;;;;;;;18.60;8.83;;;0.70;99.90;;;;;;5030319;28;21392;-51
2022/03/06 06:41:10;;;;;;;12.77;8.00;;;0.70;99.90;;;;;;5030591;28;20471;-51
2022/03/06 06:43:37;;;;;;;9.37;7.00;;;0.80;99.90;;;;;;5028737;28;21132;-51
2022/03/06 06:46:04;;;;;;;15.00;8.73;;;0.70;99.90;;;;;;5033580;28;20994;-51
2022/03/06 06:48:30;;;;;;;9.63;7.40;;;0.70;99.90;;;;;;5029579;28;20495;-51
2022/03/06 06:50:57;;;;;;;11.27;7.63;;;0.70;99.90;;;;;;5032414;28;20490;-51
2022/03/06 06:53:23;;;;;;;11.80;7.07;;;0.70;99.90;;;;;;5029234;28;20476;-51
2022/03/06 06:55:51;;;;;;;9.83;7.23;;;0.70;99.90;;;;;;5020275;28;20983;-51
2022/03/06 06:58:18;;;;;;;8.87;6.80;;;0.80;99.90;;;;;;5024139;28;20511;-51
2022/03/06 07:00:44;;;;;;;10.37;6.23;;;0.80;99.90;;;;;;5033260;28;20505;-52
2022/03/06 07:03:11;;;;;;;6.10;5.50;;;0.90;99.90;;;;;;5031542;28;20486;-51
2022/03/06 07:05:38;;;;;;;8.50;5.20;;;0.90;99.90;;;;;;5021614;28;22202;-51
2022/03/06 07:08:05;;;;;;;6.43;4.93;;;1.00;99.90;;;;;;5032969;28;20541;-51
2022/03/06 07:10:32;;;;;;;5.00;4.50;;;1.00;99.90;;;;;;5022036;28;20452;-51
2022/03/06 07:13:00;;;;;;;5.13;4.60;;;0.90;99.90;;;;;;5018612;28;20494;-51
2022/03/06 07:15:28;;;;;;;4.37;4.00;;;1.00;99.90;;;;;;5028687;28;20494;-51
2022/03/06 07:17:56;;;;;;;5.93;4.50;;;1.00;99.90;;;;;;5026007;28;21020;-51
2022/03/06 07:20:23;;;;;;;5.43;4.07;;;1.00;99.90;;;;;;5028517;28;20490;-51
2022/03/06 07:22:50;;;;;;;5.40;4.90;;;1.00;99.90;;;;;;5027834;28;20497;-51
2022/03/06 07:25:16;;;;;;;5.03;4.27;;;1.00;99.90;;;;;;5026517;28;20491;-52
2022/03/06 07:27:43;;;;;;;4.23;3.83;;;0.90;99.90;;;;;;5032014;28;21006;-51
2022/03/06 07:30:12;;;;;;;4.10;3.80;;;0.90;99.90;;;;;;5030058;28;20506;-51
2022/03/06 07:32:42;;;;;;;4.40;4.03;;;1.00;99.90;;;;;;5028563;28;20472;-52
2022/03/06 07:35:09;;;;;;;4.27;3.87;;;0.90;99.90;;;;;;5029568;28;20455;-51
2022/03/06 07:37:36;;;;;;;3.57;3.33;;;1.00;99.90;;;;;;5032208;28;20483;-51
2022/03/06 07:40:03;;;;;;;6.00;4.17;;;0.90;99.90;;;;;;5031756;28;20995;-51
2022/03/06 07:42:30;;;;;;;4.53;3.93;;;1.00;99.90;;;;;;5029797;28;20490;-51
2022/03/06 07:44:57;;;;;;;3.63;3.40;;;1.00;99.90;;;;;;5030099;28;20462;-51
2022/03/06 07:47:25;;;;;;;4.20;3.57;;;1.00;99.90;;;;;;5029665;28;20495;-50
2022/03/06 07:49:51;;;;;;;6.10;5.47;;;1.00;99.90;;;;;;5019064;28;20519;-51
2022/03/06 07:52:18;;;;;;;7.10;3.87;;;1.00;99.90;;;;;;5022770;28;20495;-51
2022/03/06 07:54:45;;;;;;;7.07;6.47;;;1.10;99.90;;;;;;5030011;28;20483;-52
2022/03/06 07:57:12;;;;;;;9.93;4.50;;;1.10;99.90;;;;;;5024659;28;20744;-51
2022/03/06 07:59:39;;;;;;;5.40;5.00;;;1.10;99.90;;;;;;5027205;28;20976;-51
2022/03/06 08:02:06;;;;;;;5.93;5.43;;;1.10;99.90;;;;;;5031063;28;20978;-52
2022/03/06 08:04:33;;;;;;;5.13;4.63;;;1.20;99.90;;;;;;5024849;28;20501;-51
2022/03/06 08:07:00;;;;;;;5.77;4.90;;;1.20;99.90;;;;;;5026424;28;20486;-51
2022/03/06 08:09:27;;;;;;;10.57;7.57;;;1.20;99.90;;;;;;5028858;28;20518;-52
2022/03/06 08:11:54;;;;;;;9.50;8.03;;;1.30;99.90;;;;;;5029751;28;20492;-51
2022/03/06 08:14:21;;;;;;;4.93;4.43;;;1.30;99.90;;;;;;5027922;28;21023;-51
2022/03/06 08:16:47;;;;;;;5.80;5.10;;;1.20;99.90;;;;;;5022216;28;20918;-51
2022/03/06 08:19:14;;;;;;;5.50;5.00;;;1.30;99.90;;;;;;5027614;28;21027;-51
2022/03/06 08:21:42;;;;;;;5.67;3.63;;;1.20;99.90;;;;;;5023469;28;20471;-51
2022/03/06 08:24:09;;;;;;;4.93;4.40;;;1.30;99.90;;;;;;5027871;28;20466;-51
2022/03/06 08:26:35;;;;;;;6.40;4.80;;;1.30;99.90;;;;;;5032352;28;20848;-52
2022/03/06 08:29:03;;;;;;;5.20;4.70;;;1.40;99.90;;;;;;5019749;28;20505;-52
2022/03/06 08:31:29;;;;;;;3.47;3.27;;;1.30;99.90;;;;;;5029115;28;20967;-51
2022/03/06 08:33:56;;;;;;;5.00;3.80;;;1.30;99.90;;;;;;5031421;28;20486;-51
2022/03/06 08:36:22;;;;;;;6.37;4.40;;;1.30;99.90;;;;;;5031315;28;20459;-51
2022/03/06 08:38:50;;;;;;;3.33;3.03;;;1.40;99.90;;;;;;5026745;28;20546;-53
2022/03/06 08:41:17;;;;;;;3.67;3.37;;;1.40;99.90;;;;;;5024807;28;20501;-51
2022/03/06 08:43:44;;;;;;;3.90;3.50;;;1.50;99.90;;;;;;5028113;28;20990;-51
2022/03/06 08:46:11;;;;;;;3.80;3.50;;;1.60;99.90;;;;;;5023110;28;20471;-51
2022/03/06 08:48:38;;;;;;;5.33;3.60;;;1.60;99.90;;;;;;5023435;28;20574;-51
2022/03/06 08:51:05;;;;;;;4.47;4.10;;;1.60;99.90;;;;;;5024791;28;20573;-52
2022/03/06 08:53:32;;;;;;;15.53;12.67;;;1.60;99.90;;;;;;5023608;28;20496;-52
2022/03/06 08:56:01;;;;;;;9.53;5.87;;;1.60;99.90;;;;;;5029833;28;20523;-51
2022/03/06 08:58:28;;;;;;;4.40;4.10;;;1.70;99.90;;;;;;5026025;28;20510;-51
2022/03/06 09:00:55;;;;;;;4.90;4.27;;;1.70;99.90;;;;;;5028096;28;20486;-52
2022/03/06 09:03:21;;;;;;;4.97;3.57;;;1.70;99.90;;;;;;5029976;28;20459;-52
2022/03/06 09:05:48;;;;;;;5.80;3.60;;;1.70;99.90;;;;;;5029003;28;20491;-51
2022/03/06 09:08:15;;;;;;;4.27;3.50;;;1.70;99.90;;;;;;5028342;28;20947;-51
2022/03/06 09:10:42;;;;;;;3.67;3.10;;;1.70;99.90;;;;;;5049236;22;21160;-52
2022/03/06 09:13:10;;;;;;;7.10;4.80;;;1.70;99.90;;;;;;5065886;28;21020;-51
2022/03/06 09:15:38;;;;;;;5.30;4.27;;;1.80;99.90;;;;;;5066224;28;20453;-51
2022/03/06 09:18:05;;;;;;;4.13;3.57;;;1.90;99.90;;;;;;5067153;28;20549;-51
2022/03/06 09:20:31;;;;;;;5.17;3.60;;;2.00;99.90;;;;;;5061492;28;20572;-51
2022/03/06 09:22:58;;;;;;;5.03;4.13;;;2.00;99.90;;;;;;5047713;28;20545;-52
2022/03/06 09:25:25;;;;;;;6.87;4.80;;;2.10;99.90;;;;;;5067148;28;21027;-51
2022/03/06 09:27:52;;;;;;;5.57;5.07;;;1.90;99.90;;;;;;5066100;28;21055;-51
2022/03/06 09:30:19;;;;;;;10.73;5.70;;;2.00;99.90;;;;;;5063904;28;21108;-50
2022/03/06 09:32:46;;;;;;;3.67;3.40;;;2.00;99.90;;;;;;5066787;28;20489;-51
2022/03/06 09:35:13;;;;;;;5.23;4.17;;;2.10;99.90;;;;;;5067372;28;20552;-52
2022/03/06 09:37:39;;;;;;;4.27;3.67;;;2.20;99.90;;;;;;5063033;28;20544;-51
2022/03/06 09:40:07;;;;;;;3.97;3.67;;;2.30;99.90;;;;;;5071496;28;20907;-52
2022/03/06 09:42:34;;;;;;;3.73;3.53;;;2.40;99.90;;;;;;5063586;28;20556;-50
2022/03/06 09:45:04;;;;;;;4.30;3.90;;;2.10;99.90;;;;;;5065958;28;20467;-51
2022/03/06 09:47:33;;;;;;;6.73;4.20;;;2.20;99.90;;;;;;5060563;28;20465;-51
2022/03/06 09:50:01;;;;;;;3.97;3.60;;;2.20;99.90;;;;;;5063579;28;20510;-51
2022/03/06 09:52:28;;;;;;;7.50;4.73;;;2.20;99.90;;;;;;5063849;28;20457;-51
2022/03/06 09:54:54;;;;;;;5.00;4.40;;;2.10;99.90;;;;;;5061895;28;20551;-51
2022/03/06 09:57:21;;;;;;;3.50;3.30;;;2.20;99.90;;;;;;5063062;28;20461;-51
2022/03/06 09:59:49;;;;;;;5.00;4.50;;;2.30;99.90;;;;;;5064099;28;20575;-50
2022/03/06 10:02:15;;;;;;;3.83;3.33;;;2.30;99.90;;;;;;5065870;28;20485;-51
2022/03/06 10:04:46;;;;;;;4.03;3.73;;;2.30;99.90;;;;;;5069158;28;20515;-51
2022/03/06 10:07:14;;;;;;;4.07;3.77;;;2.40;99.90;;;;;;5064941;28;20457;-51
2022/03/06 10:09:45;;;;;;;8.10;3.80;;;2.40;99.90;;;;;;5069935;28;20458;-51
2022/03/06 10:12:22;;;;;;;4.20;3.80;;;2.10;99.90;;;;;;5065362;28;20458;-51
2022/03/06 10:14:50;;;;;;;3.33;3.13;;;2.10;99.90;;;;;;5066856;28;20950;-51
2022/03/06 10:17:19;;;;;;;4.27;3.17;;;2.20;99.90;;;;;;5063157;28;20884;-51
2022/03/06 10:19:56;;;;;;;3.53;3.33;;;2.00;99.90;;;;;;5066318;28;20508;-52
2022/03/06 10:22:25;;;;;;;3.90;3.13;;;2.20;99.90;;;;;;5065255;28;20536;-52
2022/03/06 10:24:53;;;;;;;3.83;2.87;;;2.30;99.90;;;;;;5059871;28;20557;-52
2022/03/06 10:27:47;;;;;;;3.20;2.87;;;2.40;99.90;;;;;;5065448;28;20810;-52
2022/03/06 10:30:32;;;;;;;4.23;3.90;;;2.60;99.90;;;;;;5063419;28;21075;-52
2022/03/06 10:33:00;;;;;;;5.63;3.30;;;2.70;99.90;;;;;;5064630;28;20478;-52
2022/03/06 10:35:34;;;;;;;3.40;3.10;;;2.60;99.90;;;;;;5063509;28;20535;-53
2022/03/06 10:38:01;;;;;;;5.00;4.33;;;2.60;99.90;;;;;;5061287;28;20449;-52
2022/03/06 10:40:35;;;;;;;4.03;3.60;;;2.50;99.90;;;;;;5065582;28;20490;-53
2022/03/06 10:43:15;;;;;;;2.90;2.80;;;2.70;99.90;;;;;;5070937;28;20449;-53
2022/03/06 10:45:42;;;;;;;3.80;3.30;;;2.70;99.90;;;;;;5060727;28;20500;-53
2022/03/06 10:48:10;;;;;;;4.80;3.20;;;2.80;99.90;;;;;;5060688;28;20461;-51
2022/03/06 10:50:37;;;;;;;3.43;3.23;;;2.80;99.90;;;;;;5063288;28;20505;-51
2022/03/06 10:53:17;;;;;;;2.80;2.60;;;3.00;99.90;;;;;;5067402;28;20489;-53
2022/03/06 10:55:44;;;;;;;2.80;2.60;;;2.90;99.90;;;;;;5066930;28;20941;-51
2022/03/06 10:58:12;;;;;;;3.67;3.47;;;3.00;99.90;;;;;;5060818;28;20441;-51
2022/03/06 11:00:39;;;;;;;3.27;2.70;;;2.90;99.90;;;;;;5065605;28;20516;-50
2022/03/06 11:03:09;;;;;;;2.80;2.60;;;2.90;99.90;;;;;;5065619;28;20496;-50
2022/03/06 11:05:40;;;;;;;2.60;2.40;;;2.90;99.90;;;;;;5066586;28;20456;-51
2022/03/06 11:08:08;;;;;;;3.23;2.60;;;2.80;99.90;;;;;;5069242;28;20539;-51
2022/03/06 11:10:35;;;;;;;2.53;2.30;;;2.50;99.90;;;;;;5068046;28;20521;-51
2022/03/06 11:13:02;;;;;;;2.87;2.00;;;2.70;99.90;;;;;;5070032;28;20456;-50
2022/03/06 11:15:29;;;;;;;2.47;2.27;;;2.80;99.90;;;;;;5061029;28;20498;-51
2022/03/06 11:18:00;;;;;;;2.10;1.90;;;2.90;99.90;;;;;;5068685;28;21161;-50
2022/03/06 11:20:28;;;;;;;2.13;2.03;;;2.90;99.90;;;;;;5071076;28;20862;-50
2022/03/06 11:23:03;;;;;;;3.97;3.00;;;2.90;99.90;;;;;;5060853;28;20548;-50
2022/03/06 11:25:31;;;;;;;2.73;2.63;;;2.80;99.90;;;;;;5065049;28;21139;-51
2022/03/06 11:28:18;;;;;;;3.03;2.60;;;2.90;99.90;;;;;;5062479;28;20457;-51
2022/03/06 11:30:44;;;;;;;8.97;6.03;;;2.80;99.90;;;;;;5065192;28;20571;-50
2022/03/06 11:33:12;;;;;;;4.80;4.27;;;2.90;99.90;;;;;;5068672;28;20493;-50
2022/03/06 11:35:41;;;;;;;19.67;14.13;;;3.00;99.90;;;;;;5062958;28;20462;-50
2022/03/06 11:38:10;;;;;;;7.83;5.37;;;2.80;99.90;;;;;;5064611;28;20545;-51
2022/03/06 11:40:45;;;;;;;2.77;2.57;;;3.00;99.90;;;;;;5055310;28;20921;-51
2022/03/06 11:43:30;;;;;;;2.00;1.90;;;2.90;99.90;;;;;;5063960;28;20456;-52
2022/03/06 11:46:09;;;;;;;2.40;2.20;;;3.10;99.90;;;;;;5069090;28;20461;-50
2022/03/06 11:49:05;;;;;;;4.53;2.17;;;2.90;99.90;;;;;;5064044;28;20461;-50
2022/03/06 11:51:33;;;;;;;1.87;1.77;;;2.90;99.90;;;;;;5073756;28;20468;-51
2022/03/06 11:54:05;;;;;;;2.23;2.13;;;2.90;99.90;;;;;;5057233;28;20480;-50
2022/03/06 11:56:50;;;;;;;2.10;1.90;;;2.90;99.90;;;;;;5067514;28;20502;-50
2022/03/06 11:59:33;;;;;;;3.80;2.60;;;3.00;99.90;;;;;;5056065;28;20461;-52
2022/03/06 12:02:05;;;;;;;2.03;1.90;;;3.00;99.90;;;;;;5058335;28;20485;-51
2022/03/06 12:04:34;;;;;;;2.50;2.40;;;2.90;99.90;;;;;;5058918;28;20462;-51
2022/03/06 12:07:02;;;;;;;6.27;5.20;;;2.90;99.90;;;;;;5069425;28;20485;-50
2022/03/06 12:09:33;;;;;;;2.93;2.73;;;3.00;99.90;;;;;;5059771;28;20514;-51
2022/03/06 12:12:02;;;;;;;4.57;3.83;;;2.90;99.90;;;;;;5062120;28;20488;-51
2022/03/06 12:14:32;;;;;;;3.40;3.10;;;3.00;99.90;;;;;;5060102;28;20465;-52
2022/03/06 12:17:22;;;;;;;2.33;2.13;;;2.90;99.90;;;;;;5061541;28;20462;-52
2022/03/06 12:20:25;;;;;;;4.67;4.07;;;2.90;99.90;;;;;;5066064;28;20445;-51
2022/03/06 12:22:55;;;;;;;4.17;3.77;;;2.90;99.90;;;;;;5055817;28;20464;-51
2022/03/06 12:25:31;;;;;;;3.20;2.10;;;2.80;99.90;;;;;;5063081;28;20466;-51
2022/03/06 12:28:27;;;;;;;3.33;2.90;;;2.70;99.90;;;;;;5060887;28;20466;-51
2022/03/06 12:30:56;;;;;;;3.23;2.40;;;2.80;99.90;;;;;;5062342;28;20479;-51
2022/03/06 12:33:28;;;;;;;3.00;2.20;;;2.80;99.90;;;;;;5065728;28;20522;-51
2022/03/06 12:36:13;;;;;;;3.53;3.17;;;2.70;99.90;;;;;;5059179;28;20546;-50
2022/03/06 12:38:40;;;;;;;2.80;2.67;;;2.70;99.90;;;;;;5066437;28;20472;-51
2022/03/06 12:41:08;;;;;;;3.20;2.80;;;2.70;99.90;;;;;;5063590;28;20580;-51
2022/03/06 12:43:38;;;;;;;3.30;3.10;;;2.60;99.90;;;;;;5061223;28;20970;-54
2022/03/06 12:46:05;;;;;;;4.50;4.00;;;2.70;99.90;;;;;;5062439;28;20481;-52
2022/03/06 12:48:31;;;;;;;5.13;4.80;;;2.70;99.90;;;;;;5068212;28;20477;-52
2022/03/06 12:50:58;;;;;;;5.30;4.93;;;2.80;99.90;;;;;;5063372;28;20508;-53
2022/03/06 12:53:24;;;;;;;5.30;3.03;;;2.80;99.90;;;;;;5065034;28;21115;-53
2022/03/06 12:55:57;;;;;;;4.50;4.10;;;2.70;99.90;;;;;;5067801;28;20496;-53
2022/03/06 12:58:38;;;;;;;16.50;11.63;;;2.70;99.90;;;;;;5065358;28;20537;-56
2022/03/06 13:01:10;;;;;;;5.83;5.20;;;2.80;99.90;;;;;;5061072;28;20481;-53